createdAt,value
2023-04-15T00:01:19.850Z,24.82
2023-04-15T00:03:50.105Z,25.01
2023-04-15T00:06:19.594Z,25.08
2023-04-15T00:08:48.251Z,25.15
2023-04-15T00:11:16.599Z,24.81
2023-04-15T00:13:45.806Z,25.03
2023-04-15T00:16:14.141Z,24.75
2023-04-15T00:18:42.765Z,25.25
2023-04-15T00:21:12.685Z,24.82
2023-04-15T00:23:41.276Z,25.77
2023-04-15T00:26:10.074Z,25.17
2023-04-15T00:28:38.836Z,25.63
2023-04-15T00:31:07.506Z,25.48
2023-04-15T00:33:36.841Z,25.53
2023-04-15T00:36:08.662Z,25.42
2023-04-15T00:38:39.743Z,25.59
2023-04-15T00:41:08.339Z,25.35
2023-04-15T00:43:36.746Z,26.15
2023-04-15T00:46:07.707Z,25.45
2023-04-15T00:48:37.041Z,25.35
2023-04-15T00:51:05.513Z,25.96
2023-04-15T00:53:34.624Z,25.72
2023-04-15T00:56:04.148Z,25.25
2023-04-15T00:58:32.638Z,24.94
2023-04-15T01:01:01.515Z,25.66
2023-04-15T01:03:31.857Z,25.29
2023-04-15T01:06:04.023Z,25.55
2023-04-15T01:08:33.004Z,25.49
2023-04-15T01:11:03.709Z,24.57
2023-04-15T01:13:35.920Z,25.21
2023-04-15T01:16:04.614Z,26.06
2023-04-15T01:18:32.891Z,25.17
2023-04-15T01:21:03.810Z,26.23
2023-04-15T01:23:34.113Z,26.17
2023-04-15T01:26:04.535Z,26.66
2023-04-15T01:28:33.565Z,26.07
2023-04-15T01:31:09.268Z,25.56
2023-04-15T01:33:41.429Z,26.58
2023-04-15T01:36:28.246Z,26.39
2023-04-15T01:38:57.293Z,26.26
2023-04-15T01:41:28.893Z,26.29
2023-04-15T01:43:58.467Z,26.90
2023-04-15T01:46:28.264Z,26.50
2023-04-15T01:48:58.237Z,26.74
2023-04-15T01:51:28.656Z,26.27
2023-04-15T01:53:58.271Z,27.00
2023-04-15T01:56:29.934Z,26.86
2023-04-15T01:58:59.945Z,26.79
2023-04-15T02:01:30.405Z,27.17
2023-04-15T02:04:02.859Z,27.25
2023-04-15T02:06:34.561Z,26.73
2023-04-15T02:09:04.466Z,26.34
2023-04-15T02:11:37.343Z,27.13
2023-04-15T02:14:07.294Z,26.68
2023-04-15T02:16:37.040Z,26.71
2023-04-15T02:19:06.691Z,26.64
2023-04-15T02:21:36.676Z,25.92
2023-04-15T02:24:06.685Z,26.64
2023-04-15T02:26:37.700Z,25.92
2023-04-15T02:29:33.070Z,24.79
2023-04-15T02:32:03.985Z,24.44
2023-04-15T02:34:33.822Z,25.25
2023-04-15T02:37:04.037Z,24.33
2023-04-15T02:39:33.719Z,23.61
2023-04-15T02:42:06.096Z,23.23
2023-04-15T02:44:36.682Z,23.12
2023-04-15T02:47:07.639Z,22.93
2023-04-15T02:49:37.328Z,23.12
2023-04-15T02:52:07.968Z,22.58
2023-04-15T02:54:37.701Z,23.13
2023-04-15T02:57:08.744Z,24.12
2023-04-15T02:59:39.549Z,23.33
2023-04-15T03:02:09.334Z,22.99
2023-04-15T03:04:39.923Z,23.53
2023-04-15T03:07:09.691Z,23.38
2023-04-15T03:09:40.542Z,23.44
2023-04-15T03:12:12.001Z,23.79
2023-04-15T03:14:41.745Z,23.71
2023-04-15T03:17:11.619Z,24.20
2023-04-15T03:19:41.948Z,24.06
2023-04-15T03:22:12.308Z,24.13
2023-04-15T03:24:41.989Z,25.23
2023-04-15T03:27:13.348Z,24.45
2023-04-15T03:29:43.395Z,24.43
2023-04-15T03:32:15.285Z,24.69
2023-04-15T03:34:45.248Z,24.97
2023-04-15T03:37:14.904Z,24.33
2023-04-15T03:39:44.608Z,24.29
2023-04-15T03:42:15.836Z,24.79
2023-04-15T03:44:45.506Z,24.41
2023-04-15T03:47:15.260Z,24.23
2023-04-15T03:49:44.960Z,24.04
2023-04-15T03:52:14.598Z,24.40
2023-04-15T03:54:44.162Z,23.77
2023-04-15T03:57:15.290Z,23.64
2023-04-15T03:59:45.142Z,23.47
2023-04-15T04:02:14.931Z,23.50
2023-04-15T04:04:44.950Z,22.98
2023-04-15T04:07:17.798Z,24.27
2023-04-15T04:09:47.578Z,23.23
2023-04-15T04:12:18.850Z,22.96
2023-04-15T04:14:48.522Z,22.51
2023-04-15T04:17:20.150Z,23.01
2023-04-15T04:19:49.991Z,23.34
2023-04-15T04:22:19.781Z,23.32
2023-04-15T04:24:49.337Z,24.13
2023-04-15T04:27:20.449Z,22.55
2023-04-15T04:29:50.239Z,22.57
2023-04-15T04:32:39.626Z,23.74
2023-04-15T04:35:10.297Z,22.80
2023-04-15T04:37:40.113Z,22.77
2023-04-15T04:40:10.852Z,21.63
2023-04-15T04:42:41.980Z,21.79
2023-04-15T04:45:12.071Z,21.81
2023-04-15T04:47:41.790Z,22.26
2023-04-15T04:50:11.967Z,21.90
2023-04-15T04:52:41.702Z,22.53
2023-04-15T04:55:11.361Z,20.95
2023-04-15T04:57:43.548Z,21.61
2023-04-15T05:00:14.326Z,21.12
2023-04-15T05:02:44.336Z,20.83
2023-04-15T05:05:18.798Z,20.37
2023-04-15T05:07:49.371Z,21.77
2023-04-15T05:10:20.442Z,20.57
2023-04-15T05:12:52.158Z,19.91
2023-04-15T05:15:21.996Z,19.72
2023-04-15T05:17:54.601Z,19.35
2023-04-15T05:20:24.570Z,19.81
2023-04-15T05:22:54.324Z,19.62
2023-04-15T05:25:24.116Z,21.06
2023-04-15T05:27:55.466Z,21.17
2023-04-15T05:30:25.257Z,20.73
2023-04-15T05:32:55.027Z,20.18
2023-04-15T05:35:24.771Z,20.28
2023-04-15T05:37:54.391Z,20.33
2023-04-15T05:40:24.481Z,20.09
2023-04-15T05:42:55.644Z,19.45
2023-04-15T05:45:25.425Z,20.42
2023-04-15T05:47:55.258Z,19.83
2023-04-15T05:50:25.852Z,19.42
2023-04-15T05:52:56.152Z,20.66
2023-04-15T05:55:25.919Z,19.59
2023-04-15T05:57:57.335Z,20.70
2023-04-15T06:00:27.504Z,20.86
2023-04-15T06:02:58.070Z,19.55
2023-04-15T06:05:28.273Z,19.68
2023-04-15T06:07:58.055Z,18.84
2023-04-15T06:10:27.879Z,20.05
2023-04-15T06:12:59.121Z,19.72
2023-04-15T06:15:28.946Z,19.55
2023-04-15T06:17:59.017Z,19.41
2023-04-15T06:20:31.463Z,19.47
2023-04-15T06:23:20.882Z,19.91
2023-04-15T06:25:59.670Z,20.80
2023-04-15T06:31:21.711Z,19.90
2023-04-15T06:33:57.423Z,18.76
2023-04-15T06:36:28.087Z,19.05
2023-04-15T06:39:05.500Z,19.24
2023-04-15T06:41:35.791Z,19.81
2023-04-15T06:44:07.273Z,19.64
2023-04-15T06:46:39.809Z,18.22
2023-04-15T06:49:10.036Z,17.67
2023-04-15T06:51:44.327Z,18.02
2023-04-15T06:54:15.239Z,18.20
2023-04-15T06:56:44.995Z,19.89
2023-04-15T06:59:20.006Z,17.96
2023-04-15T07:01:53.309Z,18.29
2023-04-15T07:04:28.040Z,18.87
2023-04-15T07:06:58.076Z,19.81
2023-04-15T07:09:29.750Z,18.07
2023-04-15T07:12:00.098Z,18.13
2023-04-15T07:14:31.433Z,16.57
2023-04-15T07:17:01.567Z,16.71
2023-04-15T07:19:43.803Z,16.62
2023-04-15T07:22:17.801Z,16.30
2023-04-15T07:24:48.587Z,17.70
2023-04-15T07:27:24.221Z,17.00
2023-04-15T07:29:55.506Z,16.95
2023-04-15T07:32:26.393Z,16.39
2023-04-15T07:34:59.803Z,16.04
2023-04-15T07:37:59.650Z,17.07
2023-04-15T07:40:29.863Z,16.68
2023-04-15T07:43:00.790Z,16.77
2023-04-15T07:45:32.913Z,16.87
2023-04-15T07:48:19.774Z,16.98
2023-04-15T07:50:56.502Z,16.90
2023-04-15T07:53:31.744Z,17.57
2023-04-15T07:56:11.594Z,15.95
2023-04-15T07:58:59.968Z,15.80
2023-04-15T08:02:03.775Z,16.90
2023-04-15T08:04:43.892Z,15.67
2023-04-15T08:07:22.410Z,15.57
2023-04-15T08:09:52.900Z,15.12
2023-04-15T08:12:26.380Z,15.75
2023-04-15T08:16:22.068Z,16.28
2023-04-15T08:18:18.720Z,15.46
2023-04-15T08:24:03.350Z,16.06
2023-04-15T08:26:34.343Z,15.33
2023-04-15T08:29:05.132Z,15.63
2023-04-15T08:31:49.135Z,14.93
2023-04-15T08:34:20.609Z,16.08
2023-04-15T08:37:15.114Z,16.32
2023-04-15T08:39:49.594Z,16.40
2023-04-15T08:42:27.628Z,14.81
2023-04-15T08:45:02.759Z,15.96
2023-04-15T08:47:33.463Z,15.70
2023-04-15T08:50:12.419Z,15.20
2023-04-15T08:52:42.676Z,14.80
2023-04-15T08:55:19.302Z,14.98
2023-04-15T08:58:02.694Z,14.41
2023-04-15T09:00:33.764Z,15.13
2023-04-15T09:03:06.901Z,16.03
2023-04-15T09:05:42.512Z,16.39
2023-04-15T09:08:17.272Z,16.18
2023-04-15T09:10:56.245Z,15.21
2023-04-15T09:13:26.698Z,15.85
2023-04-15T09:15:58.679Z,15.45
2023-04-15T09:18:35.387Z,15.19
2023-04-15T09:21:20.783Z,15.56
2023-04-15T09:27:55.714Z,15.98
2023-04-15T09:30:26.210Z,14.72
2023-04-15T09:33:21.551Z,14.54
2023-04-15T09:36:05.757Z,15.70
2023-04-15T09:38:57.319Z,14.94
2023-04-15T09:41:29.023Z,14.62
2023-04-15T09:44:11.804Z,14.79
2023-04-15T09:46:45.695Z,13.90
2023-04-15T09:49:16.267Z,14.35
2023-04-15T09:51:57.541Z,15.25
2023-04-15T09:54:53.052Z,14.36
2023-04-15T09:57:23.807Z,15.40
2023-04-15T09:59:55.168Z,15.33
2023-04-15T10:02:26.283Z,15.19
2023-04-15T10:04:57.431Z,14.96
2023-04-15T10:07:34.364Z,13.84
2023-04-15T10:10:09.726Z,14.35
2023-04-15T10:12:42.805Z,14.01
2023-04-15T10:15:17.741Z,14.06
2023-04-15T10:17:52.228Z,14.18
2023-04-15T10:20:24.140Z,15.20
2023-04-15T10:22:55.077Z,15.50
2023-04-15T10:25:28.706Z,14.68
2023-04-15T10:27:59.094Z,14.34
2023-04-15T10:30:29.320Z,14.28
2023-04-15T10:32:59.116Z,15.42
2023-04-15T10:35:30.831Z,14.43
2023-04-15T10:38:00.624Z,13.93
2023-04-15T10:40:33.500Z,13.68
2023-04-15T10:43:04.029Z,13.48
2023-04-15T10:45:37.015Z,13.34
2023-04-15T10:48:16.812Z,14.43
2023-04-15T10:51:09.606Z,13.94
2023-04-15T10:54:23.947Z,13.40
2023-04-15T10:57:18.839Z,13.46
2023-04-15T11:00:12.671Z,13.76
2023-04-15T11:02:46.817Z,14.30
2023-04-15T11:05:31.106Z,13.77
2023-04-15T11:08:01.015Z,13.20
2023-04-15T11:10:55.555Z,13.51
2023-04-15T11:13:34.462Z,13.70
2023-04-15T11:16:05.103Z,13.45
2023-04-15T11:18:35.944Z,13.40
2023-04-15T11:21:07.922Z,13.51
2023-04-15T11:23:44.291Z,14.26
2023-04-15T11:26:18.161Z,13.89
2023-04-15T11:28:49.445Z,13.75
2023-04-15T11:31:20.299Z,13.85
2023-04-15T11:33:56.847Z,14.32
2023-04-15T11:36:28.529Z,13.72
2023-04-15T11:39:00.639Z,14.70
2023-04-15T11:41:30.643Z,13.80
2023-04-15T11:44:05.794Z,13.36
2023-04-15T11:46:35.635Z,13.98
2023-04-15T11:49:06.101Z,13.82
2023-04-15T11:51:38.021Z,14.27
2023-04-15T11:54:09.702Z,13.50
2023-04-15T11:56:38.201Z,13.35
2023-04-15T11:59:08.024Z,13.91
2023-04-15T12:01:39.560Z,13.04
2023-04-15T12:04:13.582Z,13.97
2023-04-15T12:06:42.501Z,13.91
2023-04-15T12:09:12.594Z,13.55
2023-04-15T12:11:43.591Z,13.39
2023-04-15T12:14:22.529Z,14.00
2023-04-15T12:16:54.168Z,13.52
2023-04-15T12:19:30.419Z,13.65
2023-04-15T12:22:01.388Z,13.20
2023-04-15T12:24:33.556Z,13.58
2023-04-15T12:27:09.337Z,13.97
2023-04-15T12:29:43.256Z,13.80
2023-04-15T12:32:13.427Z,13.49
2023-04-15T12:35:11.940Z,13.63
2023-04-15T12:37:43.913Z,13.96
2023-04-15T12:40:18.464Z,14.00
2023-04-15T12:42:49.542Z,13.67
2023-04-15T12:45:19.608Z,14.02
2023-04-15T12:47:48.506Z,13.65
2023-04-15T12:50:17.840Z,13.55
2023-04-15T12:52:51.917Z,14.23
2023-04-15T12:55:20.732Z,13.78
2023-04-15T12:57:51.826Z,13.82
2023-04-15T13:00:22.456Z,13.40
2023-04-15T13:02:51.509Z,13.44
2023-04-15T13:05:19.968Z,13.86
2023-04-15T13:07:51.130Z,13.40
2023-04-15T13:10:21.099Z,13.85
2023-04-15T13:12:54.124Z,13.63
2023-04-15T13:15:26.162Z,13.81
2023-04-15T13:17:54.909Z,13.95
2023-04-15T13:20:26.744Z,14.02
2023-04-15T13:22:55.784Z,14.09
2023-04-15T13:25:28.040Z,14.05
2023-04-15T13:27:57.805Z,14.05
2023-04-15T13:30:29.094Z,13.83
2023-04-15T13:32:57.767Z,13.83
2023-04-15T13:35:26.954Z,13.36
2023-04-15T13:37:56.422Z,14.59
2023-04-15T13:40:25.109Z,13.82
2023-04-15T13:42:53.678Z,13.33
2023-04-15T13:45:22.568Z,13.64
2023-04-15T13:47:54.849Z,13.34
2023-04-15T13:50:29.665Z,13.59
2023-04-15T13:52:58.372Z,13.99
2023-04-15T13:55:28.768Z,13.51
2023-04-15T13:57:58.600Z,13.70
2023-04-15T14:00:27.183Z,13.94
2023-04-15T14:02:57.436Z,13.54
2023-04-15T14:05:27.878Z,13.50
2023-04-15T14:08:00.537Z,13.63
2023-04-15T14:10:29.169Z,13.69
2023-04-15T14:12:57.797Z,13.78
2023-04-15T14:15:26.159Z,13.88
2023-04-15T14:17:55.538Z,14.13
2023-04-15T14:20:25.476Z,13.75
2023-04-15T14:22:56.739Z,13.91
2023-04-15T14:25:33.825Z,14.05
2023-04-15T14:28:03.936Z,13.87
2023-04-15T14:30:32.551Z,13.93
2023-04-15T14:33:01.200Z,14.52
2023-04-15T14:35:31.249Z,14.54
2023-04-15T14:37:59.792Z,14.58
2023-04-15T14:40:28.208Z,14.84
2023-04-15T14:42:56.658Z,14.75
2023-04-15T14:45:25.107Z,14.40
2023-04-15T14:47:54.307Z,14.42
2023-04-15T14:50:23.309Z,14.59
2023-04-15T14:52:53.277Z,14.67
2023-04-15T14:55:36.512Z,14.70
2023-04-15T14:58:11.362Z,14.68
2023-04-15T15:00:45.341Z,14.31
2023-04-15T15:03:14.885Z,14.59
2023-04-15T15:05:47.920Z,14.56
2023-04-15T15:08:20.532Z,14.27
2023-04-15T15:10:50.021Z,14.44
2023-04-15T15:13:19.642Z,14.63
2023-04-15T15:15:54.050Z,14.76
2023-04-15T15:18:30.470Z,14.95
2023-04-15T15:21:01.191Z,14.71
2023-04-15T15:23:32.166Z,14.98
2023-04-15T15:26:00.829Z,15.00
2023-04-15T15:28:29.421Z,15.28
2023-04-15T15:31:00.722Z,15.49
2023-04-15T15:33:30.322Z,15.46
2023-04-15T15:36:04.478Z,15.27
2023-04-15T15:38:34.496Z,15.83
2023-04-15T15:41:03.189Z,15.64
2023-04-15T15:43:31.835Z,16.04
2023-04-15T15:46:00.987Z,15.54
2023-04-15T15:48:32.155Z,15.45
2023-04-15T15:51:04.432Z,15.43
2023-04-15T15:53:37.114Z,15.67
2023-04-15T15:56:06.385Z,15.96
2023-04-15T15:58:35.278Z,16.05
2023-04-15T16:01:12.822Z,15.49
2023-04-15T16:04:52.349Z,15.99
2023-04-15T16:10:58.240Z,16.26
2023-04-15T16:13:50.366Z,16.02
2023-04-15T16:24:45.218Z,16.52
2023-04-15T16:30:26.401Z,16.65
2023-04-15T16:32:57.696Z,16.54
2023-04-15T16:35:54.216Z,16.75
2023-04-15T16:38:25.840Z,16.98
2023-04-15T16:41:02.679Z,17.29
2023-04-15T16:43:37.241Z,17.28
2023-04-15T16:46:05.789Z,17.34
2023-04-15T16:48:58.717Z,17.24
2023-04-15T16:52:01.638Z,17.71
2023-04-15T16:54:43.844Z,17.84
2023-04-15T16:57:25.903Z,18.06
2023-04-15T17:17:06.286Z,18.92
2023-04-15T17:19:39.627Z,18.76
2023-04-15T17:22:15.777Z,18.93
2023-04-15T17:24:52.999Z,19.07
2023-04-15T17:31:16.394Z,19.40
2023-04-15T17:34:15.927Z,18.78
2023-04-15T17:38:29.481Z,19.02
2023-04-15T17:42:10.658Z,19.18
2023-04-15T17:46:06.048Z,19.11
2023-04-15T17:49:11.967Z,19.10
2023-04-15T17:52:00.539Z,19.59
2023-04-15T17:54:52.017Z,19.04
2023-04-15T17:57:40.568Z,19.15
2023-04-15T18:00:28.960Z,18.83
2023-04-15T18:03:17.791Z,18.88
2023-04-15T18:06:14.440Z,19.16
2023-04-15T18:09:03.427Z,19.00
2023-04-15T18:11:52.332Z,19.62
2023-04-15T18:14:40.471Z,19.35
2023-04-15T18:17:33.838Z,19.41
2023-04-15T18:20:16.897Z,19.71
2023-04-15T18:22:51.046Z,19.65
2023-04-15T18:25:20.168Z,19.84
2023-04-15T18:27:49.417Z,19.57
2023-04-15T18:30:18.301Z,20.63
2023-04-15T18:32:47.031Z,20.35
2023-04-15T18:35:17.225Z,20.35
2023-04-15T18:37:45.950Z,20.12
2023-04-15T18:40:19.387Z,20.26
2023-04-15T18:42:52.721Z,20.33
2023-04-15T18:45:31.618Z,20.43
2023-04-15T18:48:09.300Z,20.40
2023-04-15T18:50:38.538Z,20.64
2023-04-15T18:53:07.027Z,20.34
2023-04-15T18:55:47.210Z,20.18
2023-04-15T18:58:15.740Z,20.86
2023-04-15T19:00:44.458Z,20.67
2023-04-15T19:03:13.035Z,20.50
2023-04-15T19:05:41.578Z,21.21
2023-04-15T19:08:13.395Z,21.00
2023-04-15T19:10:46.476Z,20.67
2023-04-15T19:13:18.732Z,20.25
2023-04-15T19:15:49.940Z,20.70
2023-04-15T19:18:18.598Z,20.60
2023-04-15T19:20:47.327Z,20.41
2023-04-15T19:23:18.093Z,20.12
2023-04-15T19:25:48.087Z,20.38
2023-04-15T19:28:16.547Z,20.26
2023-04-15T19:30:45.059Z,20.51
2023-04-15T19:33:13.946Z,20.40
2023-04-15T19:35:42.357Z,20.32
2023-04-15T19:38:11.114Z,20.07
2023-04-15T19:40:39.968Z,20.19
2023-04-15T19:43:09.909Z,20.43
2023-04-15T19:45:40.272Z,20.29
2023-04-15T19:48:09.582Z,20.28
2023-04-15T19:50:38.132Z,20.12
2023-04-15T19:53:08.397Z,20.23
2023-04-15T19:55:36.879Z,20.14
2023-04-15T19:58:09.794Z,20.44
2023-04-15T20:00:42.811Z,20.02
2023-04-15T20:03:12.117Z,20.46
2023-04-15T20:05:40.999Z,20.26
2023-04-15T20:08:09.470Z,20.16
2023-04-15T20:10:38.131Z,20.52
2023-04-15T20:13:12.023Z,19.74
2023-04-15T20:15:41.983Z,20.15
2023-04-15T20:18:10.511Z,20.53
2023-04-15T20:20:41.054Z,20.50
2023-04-15T20:23:09.689Z,20.60
2023-04-15T20:25:38.140Z,20.91
2023-04-15T20:28:06.595Z,21.02
2023-04-15T20:30:39.397Z,20.81
2023-04-15T20:33:09.267Z,21.30
2023-04-15T20:35:37.992Z,21.25
2023-04-15T20:38:06.392Z,21.10
2023-04-15T20:40:34.930Z,21.17
2023-04-15T20:43:03.492Z,21.23
2023-04-15T20:45:31.909Z,21.45
2023-04-15T20:48:02.237Z,21.80
2023-04-15T20:50:33.014Z,21.46
2023-04-15T20:53:04.055Z,22.02
2023-04-15T20:55:32.615Z,21.55
2023-04-15T20:58:01.062Z,21.79
2023-04-15T21:00:29.503Z,21.87
2023-04-15T21:02:58.002Z,21.78
2023-04-15T21:05:26.437Z,21.57
2023-04-15T21:07:56.487Z,21.58
2023-04-15T21:10:25.391Z,21.49
2023-04-15T21:12:53.468Z,21.00
2023-04-15T21:15:21.913Z,21.69
2023-04-15T21:17:53.392Z,21.87
2023-04-15T21:20:21.915Z,21.76
2023-04-15T21:22:50.786Z,21.79
2023-04-15T21:25:20.418Z,21.02
2023-04-15T21:27:49.260Z,21.49
2023-04-15T21:30:17.761Z,21.67
2023-04-15T21:32:46.188Z,21.84
2023-04-15T21:35:14.787Z,21.54
2023-04-15T21:37:43.490Z,21.78
2023-04-15T21:40:11.890Z,21.50
2023-04-15T21:42:43.487Z,21.83
2023-04-15T21:45:12.924Z,22.40
2023-04-15T21:48:04.915Z,22.19
2023-04-15T21:50:33.444Z,22.21
2023-04-15T21:53:01.942Z,22.17
2023-04-15T21:55:31.556Z,22.23
2023-04-15T21:58:01.411Z,22.46
2023-04-15T22:00:32.488Z,22.40
2023-04-15T22:03:01.076Z,22.23
2023-04-15T22:05:29.567Z,22.38
2023-04-15T22:07:59.127Z,22.13
2023-04-15T22:10:28.759Z,22.50
2023-04-15T22:13:02.508Z,22.15
2023-04-15T22:15:38.284Z,22.70
2023-04-15T22:18:07.197Z,22.42
2023-04-15T22:20:35.618Z,22.12
2023-04-15T22:23:07.929Z,22.25
2023-04-15T22:25:37.257Z,22.81
2023-04-15T22:28:06.978Z,22.80
2023-04-15T22:30:38.950Z,22.58
2023-04-15T22:33:08.338Z,22.66
2023-04-15T22:35:37.550Z,22.86
2023-04-15T22:38:06.491Z,22.85
2023-04-15T22:40:34.630Z,22.01
2023-04-15T22:43:03.049Z,22.80
2023-04-15T22:45:31.582Z,22.94
2023-04-15T22:48:02.704Z,23.09
2023-04-15T22:50:31.154Z,23.02
2023-04-15T22:52:59.631Z,22.89
2023-04-15T22:55:29.997Z,22.90
2023-04-15T22:57:58.623Z,22.96
2023-04-15T23:00:32.685Z,23.04
2023-04-15T23:03:02.943Z,23.33
2023-04-15T23:05:31.760Z,23.30
2023-04-15T23:08:02.829Z,23.50
2023-04-15T23:10:31.388Z,23.16
2023-04-15T23:12:59.917Z,23.17
2023-04-15T23:15:28.469Z,23.53
2023-04-15T23:18:02.372Z,23.44
2023-04-15T23:20:35.134Z,23.30
2023-04-15T23:23:03.721Z,23.73
2023-04-15T23:25:32.189Z,23.53
2023-04-15T23:28:01.114Z,23.71
2023-04-15T23:30:29.704Z,23.53
2023-04-15T23:32:58.504Z,23.83
2023-04-15T23:35:27.387Z,23.19
2023-04-15T23:37:57.267Z,23.59
2023-04-15T23:40:25.777Z,23.65
2023-04-15T23:42:54.164Z,23.77
2023-04-15T23:45:22.630Z,23.71
2023-04-15T23:47:51.123Z,23.66
2023-04-15T23:50:19.649Z,23.99
2023-04-15T23:52:48.224Z,23.89
2023-04-15T23:55:19.223Z,23.93
2023-04-15T23:57:48.800Z,24.21
